< < Back
Terminal Aerodrome Forecast


Current Version              Previous Versions:   1  2  3  4  5  6  7  8  9  

Terminal Aerodrome Forecast

938
FTUS42 KTAE 310300 AAB
TAFVLD
TAF AMD
KVLD 310312Z 3103/3124 18003KT P6SM VCTS SCT030CB BKN250
      TEMPO 3103/3105 1SM +TSRA BKN030CB
     FM310500 00000KT P6SM SCT040 BKN250
      TEMPO 3110/3113 00000KT 3SM BR SCT002
     FM311600 16005KT P6SM SCT040
      TEMPO 3119/3123 3SM TSRA BKN030CB=

Latest METAR

900
SAUS70 KWBC 310400 RRK
MTRVLD
METAR KVLD 310353Z 05008KT 3/4SM +TSRA BR VV012 23/23 A3016 RMK AO2 LTG
DSNT N RAB08 SLP217 P0222 T02330228


USA.gov is the U.S. government's official web portal to all federal, state and local government web resources and services.